logo
Search for airport 
image banner adimage banner adimage banner ad
image banner ad

67VT - University Of Vermont Medical Center

Located in Burlington, United States

ICAO - 67VT, IATA -

Data provided by Airmate  

General information

Coordinates: N44°28'24" W73°11'20"
Elevation is 336 feet MSL.
Magnetic variation is -14° East
View others Airports in Vermont

Operational data

Special qualification required
Current time UTC:
Current local time:
METAR: KBTV 240554Z AUTO 19006KT 10SM CLR 17/07 A2978 RMK AO2 SLP084 T01670067 10233 20161 58004
TAF: KBTV 240531Z 2406/2506 21006KT P6SM SKC WS020/28030KT FM241300 25016G23KT P6SM FEW230 FM241700 32016G24KT P6SM SCT150 FM242300 35008KT P6SM FEW180
View NOTAMs / SUP AIP / TFR affecting this airport [VIEW]
Communications frequencies: [VIEW]

Runways:

Airport contact information

Address: Burlington United States

Satellite view of 67VT